Time;durP1;ratioP1;P1;durP2;ratioP2;P2;SDS_P1;SDS_P2;PMS_P1;PMS_P2;Temp;Humidity;BMP_temperature;BMP_pressure;BME280_temperature;BME280_humidity;BME280_pressure;Samples;Min_cycle;Max_cycle;Signal;HPM_P1;HPM_P2
2023/09/05 00:02:19;;;;;;;2.85;1.98;;;;;;;;;;4980343;28;20423;-61
2023/09/05 00:04:48;;;;;;;5.05;2.05;;;;;;;;;;4992003;28;20432;-61
2023/09/05 00:07:16;;;;;;;4.35;2.08;;;;;;;;;;4987310;28;20423;-60
2023/09/05 00:09:43;;;;;;;2.75;1.92;;;;;;;;;;4994440;28;20467;-62
2023/09/05 00:12:10;;;;;;;4.65;1.90;;;;;;;;;;4990230;28;20415;-61
2023/09/05 00:14:38;;;;;;;3.97;2.10;;;;;;;;;;4992354;28;20431;-60
2023/09/05 00:17:05;;;;;;;2.88;2.00;;;;;;;;;;4988157;28;20422;-62
2023/09/05 00:19:32;;;;;;;4.10;2.00;;;;;;;;;;4992486;28;20413;-62
2023/09/05 00:22:00;;;;;;;4.72;2.00;;;;;;;;;;4985775;28;20424;-62
2023/09/05 00:24:30;;;;;;;2.50;1.90;;;;;;;;;;4991003;28;20416;-62
2023/09/05 00:26:57;;;;;;;2.63;1.80;;;;;;;;;;4988980;28;20417;-61
2023/09/05 00:29:24;;;;;;;3.85;2.08;;;;;;;;;;4990151;28;20426;-62
2023/09/05 00:31:51;;;;;;;2.22;1.70;;;;;;;;;;4993969;28;20408;-61
2023/09/05 00:34:18;;;;;;;2.55;2.10;;;;;;;;;;4990225;28;20418;-62
2023/09/05 00:36:47;;;;;;;3.55;2.08;;;;;;;;;;4994326;28;20414;-61
2023/09/05 00:39:17;;;;;;;3.40;1.80;;;;;;;;;;4986968;28;20513;-61
2023/09/05 00:41:44;;;;;;;3.45;1.83;;;;;;;;;;4993087;28;20415;-62
2023/09/05 00:44:14;;;;;;;4.45;2.00;;;;;;;;;;4987650;28;20418;-62
2023/09/05 00:46:41;;;;;;;2.57;2.07;;;;;;;;;;4986266;28;20510;-61
2023/09/05 00:49:10;;;;;;;3.30;1.92;;;;;;;;;;4989496;28;20509;-60
2023/09/05 00:51:38;;;;;;;3.67;2.00;;;;;;;;;;4990115;28;20431;-62
2023/09/05 00:54:06;;;;;;;3.97;2.17;;;;;;;;;;4989356;28;21052;-62
2023/09/05 00:56:35;;;;;;;3.85;1.80;;;;;;;;;;4988693;28;20437;-62
2023/09/05 00:59:03;;;;;;;2.70;2.00;;;;;;;;;;4989087;28;20446;-60
2023/09/05 01:01:30;;;;;;;5.55;2.03;;;;;;;;;;4992705;28;20432;-62
2023/09/05 01:03:57;;;;;;;3.03;2.00;;;;;;;;;;4985700;28;20482;-62
2023/09/05 01:06:31;;;;;;;2.97;1.73;;;;;;;;;;4992098;28;20449;-60
2023/09/05 01:09:03;;;;;;;2.47;1.85;;;;;;;;;;4979764;28;20507;-62
2023/09/05 01:11:31;;;;;;;2.85;1.95;;;;;;;;;;4988667;28;20439;-62
2023/09/05 01:13:59;;;;;;;3.05;1.90;;;;;;;;;;4985825;28;20418;-62
2023/09/05 01:16:26;;;;;;;3.30;1.83;;;;;;;;;;4985181;28;20415;-61
2023/09/05 01:18:53;;;;;;;2.72;2.00;;;;;;;;;;4986211;28;20417;-62
2023/09/05 01:21:25;;;;;;;2.80;1.90;;;;;;;;;;4989923;28;20908;-62
2023/09/05 01:23:55;;;;;;;2.17;1.70;;;;;;;;;;4988904;28;20471;-62
2023/09/05 01:26:23;;;;;;;3.10;1.80;;;;;;;;;;4990507;28;20446;-62
2023/09/05 01:28:52;;;;;;;2.10;1.80;;;;;;;;;;4989932;28;20420;-62
2023/09/05 01:31:19;;;;;;;2.28;1.85;;;;;;;;;;4989639;28;20557;-62
2023/09/05 01:33:46;;;;;;;3.23;1.87;;;;;;;;;;4987942;28;20435;-62
2023/09/05 01:36:14;;;;;;;2.95;1.90;;;;;;;;;;4992777;28;20410;-62
2023/09/05 01:38:41;;;;;;;3.97;1.90;;;;;;;;;;4985882;28;20519;-62
2023/09/05 01:41:08;;;;;;;3.70;1.73;;;;;;;;;;4993225;28;20411;-62
2023/09/05 01:43:37;;;;;;;3.53;1.80;;;;;;;;;;4983771;28;20423;-62
2023/09/05 01:46:04;;;;;;;2.03;1.67;;;;;;;;;;4985181;28;20422;-62
2023/09/05 01:48:31;;;;;;;3.53;1.90;;;;;;;;;;4988014;28;20421;-62
2023/09/05 01:50:58;;;;;;;7.40;1.90;;;;;;;;;;4993086;28;21078;-62
2023/09/05 01:53:25;;;;;;;2.60;1.77;;;;;;;;;;4987824;28;20422;-61
2023/09/05 01:55:52;;;;;;;6.30;1.80;;;;;;;;;;4993119;28;20420;-62
2023/09/05 01:58:19;;;;;;;3.20;1.83;;;;;;;;;;4988376;28;20781;-62
2023/09/05 02:00:47;;;;;;;2.92;1.80;;;;;;;;;;4991159;28;20412;-61
2023/09/05 02:03:14;;;;;;;2.95;1.80;;;;;;;;;;4987192;28;20885;-61
2023/09/05 02:05:41;;;;;;;2.80;1.90;;;;;;;;;;4991286;28;20428;-61
2023/09/05 02:08:08;;;;;;;3.60;1.63;;;;;;;;;;4987175;28;20444;-61
2023/09/05 02:10:35;;;;;;;2.90;1.70;;;;;;;;;;4989123;28;20432;-61
2023/09/05 02:13:02;;;;;;;3.65;2.03;;;;;;;;;;4986421;28;20443;-62
2023/09/05 02:15:29;;;;;;;3.40;2.10;;;;;;;;;;4986103;28;20445;-62
2023/09/05 02:18:00;;;;;;;3.95;1.70;;;;;;;;;;4988951;28;20413;-62
2023/09/05 02:20:27;;;;;;;2.45;1.60;;;;;;;;;;4987245;28;20420;-61
2023/09/05 02:22:54;;;;;;;2.45;1.92;;;;;;;;;;4991666;28;20787;-61
2023/09/05 02:25:21;;;;;;;2.45;1.75;;;;;;;;;;4983933;28;20430;-63
2023/09/05 02:27:48;;;;;;;2.03;1.60;;;;;;;;;;4991198;28;20502;-64
2023/09/05 02:30:16;;;;;;;3.70;1.60;;;;;;;;;;4995215;28;20478;-65
2023/09/05 02:32:44;;;;;;;2.50;1.80;;;;;;;;;;4989094;28;20907;-65
2023/09/05 02:35:14;;;;;;;3.17;1.70;;;;;;;;;;4986186;28;21079;-65
2023/09/05 02:37:41;;;;;;;3.60;1.70;;;;;;;;;;4995106;28;20430;-65
2023/09/05 02:40:09;;;;;;;2.10;1.60;;;;;;;;;;4990021;28;20484;-63
2023/09/05 02:42:36;;;;;;;2.65;1.80;;;;;;;;;;4987281;28;21101;-63
2023/09/05 02:45:04;;;;;;;4.43;1.90;;;;;;;;;;4985607;28;20418;-64
2023/09/05 02:47:31;;;;;;;2.90;1.67;;;;;;;;;;4985933;28;20421;-63
2023/09/05 02:49:58;;;;;;;2.13;1.67;;;;;;;;;;4996185;28;20410;-64
2023/09/05 02:52:26;;;;;;;2.60;1.80;;;;;;;;;;4983571;28;20417;-64
2023/09/05 02:54:53;;;;;;;3.13;1.70;;;;;;;;;;5009205;28;20413;-64
2023/09/05 02:57:21;;;;;;;3.22;2.15;;;;;;;;;;4998164;28;20414;-63
2023/09/05 02:59:48;;;;;;;3.70;2.30;;;;;;;;;;4990795;28;20993;-63
2023/09/05 03:02:15;;;;;;;3.70;2.75;;;;;;;;;;5009047;28;20796;-63
2023/09/05 03:04:42;;;;;;;6.50;2.95;;;;;;;;;;4996007;28;20895;-63
2023/09/05 03:07:09;;;;;;;4.18;2.83;;;;;;;;;;5009796;28;20416;-64
2023/09/05 03:09:38;;;;;;;5.75;2.90;;;;;;;;;;4988351;28;20419;-63
2023/09/05 03:12:06;;;;;;;5.53;3.00;;;;;;;;;;4998950;28;20434;-63
2023/09/05 03:14:33;;;;;;;4.82;3.40;;;;;;;;;;4986409;28;20420;-62
2023/09/05 03:17:02;;;;;;;4.43;3.20;;;;;;;;;;4988811;28;20414;-62
2023/09/05 03:19:29;;;;;;;6.72;3.58;;;;;;;;;;4994080;28;20422;-63
2023/09/05 03:21:56;;;;;;;4.53;3.55;;;;;;;;;;4987609;28;20920;-63
2023/09/05 03:24:24;;;;;;;5.22;3.20;;;;;;;;;;4983953;28;20422;-63
2023/09/05 03:26:53;;;;;;;7.67;3.30;;;;;;;;;;4984138;28;20529;-63
2023/09/05 03:29:20;;;;;;;5.07;3.38;;;;;;;;;;4990179;28;20421;-63
2023/09/05 03:31:47;;;;;;;9.73;3.10;;;;;;;;;;4985355;28;20436;-62
2023/09/05 03:34:14;;;;;;;4.60;3.10;;;;;;;;;;4983648;28;20444;-63
2023/09/05 03:36:41;;;;;;;5.35;3.35;;;;;;;;;;4985003;28;20416;-63
2023/09/05 03:39:08;;;;;;;5.63;3.50;;;;;;;;;;4982285;28;20426;-63
2023/09/05 03:41:36;;;;;;;4.37;3.23;;;;;;;;;;4979174;28;20416;-63
2023/09/05 03:44:04;;;;;;;3.55;2.88;;;;;;;;;;4986125;28;20426;-63
2023/09/05 03:46:31;;;;;;;6.47;3.03;;;;;;;;;;4986164;28;20947;-62
2023/09/05 03:48:58;;;;;;;4.60;3.35;;;;;;;;;;4985296;28;20417;-63
2023/09/05 03:51:27;;;;;;;4.20;2.83;;;;;;;;;;4986154;28;20520;-63
2023/09/05 03:53:55;;;;;;;4.47;3.22;;;;;;;;;;4987557;28;20522;-63
2023/09/05 03:56:22;;;;;;;4.82;3.00;;;;;;;;;;4988609;28;20418;-64
2023/09/05 03:58:49;;;;;;;4.20;2.90;;;;;;;;;;4988270;28;20835;-63
2023/09/05 04:01:17;;;;;;;5.72;3.00;;;;;;;;;;4988172;28;20421;-63
2023/09/05 04:03:45;;;;;;;4.80;3.00;;;;;;;;;;4987158;28;20431;-63
2023/09/05 04:06:12;;;;;;;6.57;3.30;;;;;;;;;;4988512;28;20476;-63
2023/09/05 04:08:39;;;;;;;6.15;3.72;;;;;;;;;;4985873;28;20425;-63
2023/09/05 04:11:06;;;;;;;5.68;3.45;;;;;;;;;;4988917;28;20805;-63
2023/09/05 04:13:33;;;;;;;4.13;3.10;;;;;;;;;;4984993;28;20410;-63
2023/09/05 04:16:03;;;;;;;5.40;3.35;;;;;;;;;;4984731;28;20461;-63
2023/09/05 04:18:31;;;;;;;5.75;3.78;;;;;;;;;;4987931;28;20500;-63
2023/09/05 04:20:58;;;;;;;5.75;3.50;;;;;;;;;;4988238;28;20478;-63
2023/09/05 04:23:26;;;;;;;5.18;3.45;;;;;;;;;;4981115;28;20767;-63
2023/09/05 04:25:57;;;;;;;6.13;3.70;;;;;;;;;;4989248;28;20430;-62
2023/09/05 04:28:25;;;;;;;4.27;3.23;;;;;;;;;;4987969;28;20443;-62
2023/09/05 04:30:55;;;;;;;6.83;3.33;;;;;;;;;;4991730;28;20434;-63
2023/09/05 04:33:22;;;;;;;7.43;3.78;;;;;;;;;;4987919;28;20905;-63
2023/09/05 04:35:50;;;;;;;9.83;4.00;;;;;;;;;;4988528;28;20443;-63
2023/09/05 04:38:17;;;;;;;5.90;3.58;;;;;;;;;;4990482;28;20460;-62
2023/09/05 04:40:44;;;;;;;6.15;3.90;;;;;;;;;;4987222;28;20420;-63
2023/09/05 04:43:11;;;;;;;8.18;4.20;;;;;;;;;;4990786;28;20422;-63
2023/09/05 04:45:38;;;;;;;6.38;4.43;;;;;;;;;;4985208;28;20423;-63
2023/09/05 04:48:06;;;;;;;6.93;4.50;;;;;;;;;;4992540;28;20413;-62
2023/09/05 04:50:33;;;;;;;7.30;4.40;;;;;;;;;;4985740;28;20424;-63
2023/09/05 04:53:01;;;;;;;6.20;4.30;;;;;;;;;;4995009;28;20432;-63
2023/09/05 04:55:28;;;;;;;9.88;4.53;;;;;;;;;;4986784;28;20416;-63
2023/09/05 04:57:55;;;;;;;6.38;4.28;;;;;;;;;;4997355;28;20496;-63
2023/09/05 05:00:23;;;;;;;8.63;4.53;;;;;;;;;;4985445;28;20435;-63
2023/09/05 05:02:51;;;;;;;7.07;4.60;;;;;;;;;;4996083;28;20828;-62
2023/09/05 05:05:18;;;;;;;9.57;4.68;;;;;;;;;;4985509;28;20765;-63
2023/09/05 05:07:46;;;;;;;7.10;4.45;;;;;;;;;;4994641;28;20412;-63
2023/09/05 05:10:14;;;;;;;6.70;4.40;;;;;;;;;;4989805;28;20593;-62
2023/09/05 05:12:42;;;;;;;7.00;4.57;;;;;;;;;;4995751;28;20516;-64
2023/09/05 05:15:09;;;;;;;6.90;4.20;;;;;;;;;;4992771;28;20464;-63
2023/09/05 05:17:36;;;;;;;6.15;4.25;;;;;;;;;;4987953;28;20425;-63
2023/09/05 05:20:05;;;;;;;8.07;4.10;;;;;;;;;;4990096;28;20416;-64
2023/09/05 05:22:32;;;;;;;7.55;4.43;;;;;;;;;;4991624;28;20424;-63
2023/09/05 05:24:59;;;;;;;6.72;5.45;;;;;;;;;;4989691;28;20815;-63
2023/09/05 05:27:27;;;;;;;7.53;5.40;;;;;;;;;;4991679;28;20438;-63
2023/09/05 05:29:54;;;;;;;8.13;5.13;;;;;;;;;;4987832;28;20434;-63
2023/09/05 05:32:21;;;;;;;9.20;5.07;;;;;;;;;;4991299;28;20433;-63
2023/09/05 05:34:48;;;;;;;6.13;4.80;;;;;;;;;;4989917;28;20416;-64
2023/09/05 05:37:16;;;;;;;9.15;4.88;;;;;;;;;;4995866;28;20418;-64
2023/09/05 05:39:43;;;;;;;14.77;4.83;;;;;;;;;;4995082;28;20452;-64
2023/09/05 05:42:10;;;;;;;14.05;4.60;;;;;;;;;;4996526;28;20460;-64
2023/09/05 05:44:39;;;;;;;10.70;5.33;;;;;;;;;;4988847;28;20416;-63
2023/09/05 05:47:06;;;;;;;9.07;4.57;;;;;;;;;;4993697;28;20417;-63
2023/09/05 05:49:33;;;;;;;11.32;4.57;;;;;;;;;;4992155;28;20426;-63
2023/09/05 05:52:01;;;;;;;8.82;4.00;;;;;;;;;;4991407;28;20440;-63
2023/09/05 05:54:28;;;;;;;7.75;4.50;;;;;;;;;;4991730;28;20415;-63
2023/09/05 05:56:56;;;;;;;6.13;4.25;;;;;;;;;;4993650;28;20430;-63
2023/09/05 05:59:24;;;;;;;6.87;4.20;;;;;;;;;;4987598;28;20597;-63
2023/09/05 06:01:53;;;;;;;6.80;3.67;;;;;;;;;;4989057;28;20446;-63
2023/09/05 06:04:20;;;;;;;6.63;4.00;;;;;;;;;;4991271;28;20425;-63
2023/09/05 06:06:48;;;;;;;7.18;3.90;;;;;;;;;;4984545;28;20416;-63
2023/09/05 06:09:18;;;;;;;6.30;4.18;;;;;;;;;;4990906;28;21307;-63
2023/09/05 06:11:45;;;;;;;8.03;3.90;;;;;;;;;;4986247;28;20436;-63
2023/09/05 06:14:13;;;;;;;7.10;3.60;;;;;;;;;;4991171;28;20854;-63
2023/09/05 06:16:40;;;;;;;7.10;3.40;;;;;;;;;;4982963;28;20511;-64
2023/09/05 06:19:09;;;;;;;5.18;3.20;;;;;;;;;;4992706;28;20419;-64
2023/09/05 06:21:36;;;;;;;4.70;3.20;;;;;;;;;;4985580;28;20416;-64
2023/09/05 06:24:03;;;;;;;5.10;3.20;;;;;;;;;;4990902;28;20427;-64
2023/09/05 06:26:30;;;;;;;5.35;3.08;;;;;;;;;;4985584;28;20420;-63
2023/09/05 06:28:57;;;;;;;4.47;2.90;;;;;;;;;;4997084;28;20791;-64
2023/09/05 06:31:24;;;;;;;5.60;3.22;;;;;;;;;;4985385;28;20414;-63
2023/09/05 06:33:51;;;;;;;5.10;2.90;;;;;;;;;;4995563;28;20416;-64
2023/09/05 06:36:19;;;;;;;6.20;2.70;;;;;;;;;;4985469;28;20792;-64
2023/09/05 06:38:46;;;;;;;4.47;2.50;;;;;;;;;;4993448;28;20431;-64
2023/09/05 06:41:15;;;;;;;4.28;2.50;;;;;;;;;;4985446;28;20414;-64
2023/09/05 06:43:42;;;;;;;4.68;2.42;;;;;;;;;;4991845;28;20427;-64
2023/09/05 06:46:09;;;;;;;4.28;2.20;;;;;;;;;;4980958;28;20418;-62
2023/09/05 06:48:37;;;;;;;3.65;2.20;;;;;;;;;;4986858;28;20979;-62
2023/09/05 06:51:04;;;;;;;3.17;2.40;;;;;;;;;;4991207;28;20419;-64
2023/09/05 06:53:33;;;;;;;3.35;2.50;;;;;;;;;;4989629;28;20430;-65
2023/09/05 06:56:00;;;;;;;4.10;2.47;;;;;;;;;;4988947;28;20435;-62
2023/09/05 06:58:27;;;;;;;3.15;2.45;;;;;;;;;;4993093;28;20465;-63
2023/09/05 07:00:55;;;;;;;2.92;2.20;;;;;;;;;;4985007;28;20418;-61
2023/09/05 07:03:22;;;;;;;3.90;2.30;;;;;;;;;;4988215;28;20422;-63
2023/09/05 07:05:50;;;;;;;3.10;2.42;;;;;;;;;;4991295;28;20426;-61
2023/09/05 07:08:17;;;;;;;3.65;2.30;;;;;;;;;;4991582;28;20418;-62
2023/09/05 07:10:45;;;;;;;4.68;2.58;;;;;;;;;;4991078;28;20909;-62
2023/09/05 07:13:12;;;;;;;3.92;2.55;;;;;;;;;;4989291;28;20803;-62
2023/09/05 07:15:39;;;;;;;5.78;2.38;;;;;;;;;;4972821;28;20416;-63
2023/09/05 07:18:06;;;;;;;4.73;3.70;;;;;;;;;;4986793;28;20419;-62
2023/09/05 07:20:33;;;;;;;5.00;2.97;;;;;;;;;;4987722;28;20421;-62
2023/09/05 07:23:00;;;;;;;4.25;2.65;;;;;;;;;;4995432;28;20417;-63
2023/09/05 07:25:27;;;;;;;6.13;2.70;;;;;;;;;;4986261;28;20523;-62
2023/09/05 07:27:56;;;;;;;4.50;2.63;;;;;;;;;;4988613;28;20433;-63
2023/09/05 07:30:23;;;;;;;4.95;2.45;;;;;;;;;;4997573;28;21248;-63
2023/09/05 07:32:50;;;;;;;4.82;2.60;;;;;;;;;;4990200;28;20442;-63
2023/09/05 07:35:17;;;;;;;3.80;2.57;;;;;;;;;;4997405;28;20416;-66
2023/09/05 07:37:44;;;;;;;4.72;2.60;;;;;;;;;;4990221;28;20415;-66
2023/09/05 07:40:14;;;;;;;3.67;2.50;;;;;;;;;;4993791;28;20414;-67
2023/09/05 07:42:42;;;;;;;4.35;2.78;;;;;;;;;;4990368;28;20426;-66
2023/09/05 07:45:11;;;;;;;4.30;2.60;;;;;;;;;;4993018;28;20418;-66
2023/09/05 07:47:38;;;;;;;4.45;2.30;;;;;;;;;;4990681;28;20420;-66
2023/09/05 07:50:05;;;;;;;3.40;2.53;;;;;;;;;;4996701;28;20408;-66
2023/09/05 07:52:34;;;;;;;4.20;2.53;;;;;;;;;;5012637;28;20464;-66
2023/09/05 07:55:01;;;;;;;4.80;2.70;;;;;;;;;;5002618;28;20475;-66
2023/09/05 07:57:28;;;;;;;5.80;2.72;;;;;;;;;;4997211;28;20444;-65
2023/09/05 07:59:55;;;;;;;3.78;2.38;;;;;;;;;;4990558;28;20430;-66
2023/09/05 08:02:23;;;;;;;3.13;2.60;;;;;;;;;;4994402;28;20413;-66
2023/09/05 08:04:50;;;;;;;4.07;2.30;;;;;;;;;;5001947;28;20547;-66
2023/09/05 08:07:17;;;;;;;4.28;2.40;;;;;;;;;;4982521;28;20416;-66
2023/09/05 08:09:44;;;;;;;3.00;2.17;;;;;;;;;;5009855;28;20432;-65
2023/09/05 08:12:11;;;;;;;4.00;2.20;;;;;;;;;;4992209;28;20958;-65
2023/09/05 08:14:38;;;;;;;3.10;2.15;;;;;;;;;;4985045;28;20918;-65
2023/09/05 08:17:05;;;;;;;6.07;2.30;;;;;;;;;;4985635;28;20418;-64
2023/09/05 08:19:34;;;;;;;3.58;2.13;;;;;;;;;;4987415;28;20448;-65
2023/09/05 08:22:05;;;;;;;4.70;2.20;;;;;;;;;;4990876;28;20845;-65
2023/09/05 08:24:32;;;;;;;3.67;2.00;;;;;;;;;;4987150;28;20550;-65
2023/09/05 08:27:02;;;;;;;8.40;2.20;;;;;;;;;;4990624;28;20441;-65
2023/09/05 08:29:29;;;;;;;3.50;1.92;;;;;;;;;;4992259;28;20423;-65
2023/09/05 08:31:58;;;;;;;2.78;2.05;;;;;;;;;;4987403;28;20427;-63
2023/09/05 08:34:25;;;;;;;5.68;2.20;;;;;;;;;;5007487;28;20424;-64
2023/09/05 08:36:53;;;;;;;2.45;2.17;;;;;;;;;;4991573;28;21021;-64
2023/09/05 08:39:20;;;;;;;3.38;2.10;;;;;;;;;;5006953;28;20424;-63
2023/09/05 08:41:48;;;;;;;2.75;2.00;;;;;;;;;;5000710;28;20638;-66
2023/09/05 08:44:15;;;;;;;2.47;1.83;;;;;;;;;;4989260;28;20437;-66
2023/09/05 08:46:43;;;;;;;3.03;1.90;;;;;;;;;;4987422;28;20514;-65
2023/09/05 08:49:10;;;;;;;2.65;1.90;;;;;;;;;;4987952;28;20798;-67
2023/09/05 08:51:40;;;;;;;6.20;1.85;;;;;;;;;;4990051;28;20421;-66
2023/09/05 08:54:11;;;;;;;3.00;1.87;;;;;;;;;;4996600;28;20852;-66
2023/09/05 08:56:38;;;;;;;2.80;1.70;;;;;;;;;;4988783;28;20809;-65
2023/09/05 08:59:06;;;;;;;2.83;1.98;;;;;;;;;;4991136;28;20893;-66
2023/09/05 09:01:34;;;;;;;3.10;1.77;;;;;;;;;;4986979;28;20539;-65
2023/09/05 09:04:01;;;;;;;2.53;1.80;;;;;;;;;;4991120;28;20841;-65
2023/09/05 09:06:29;;;;;;;2.90;1.63;;;;;;;;;;4987904;28;20929;-65
2023/09/05 09:08:56;;;;;;;3.40;1.70;;;;;;;;;;4989548;28;20484;-65
2023/09/05 09:14:01;;;;;;;1.65;1.20;;;;;;;;;;5805026;22;20504;-65
2023/09/05 09:16:28;;;;;;;3.00;1.57;;;;;;;;;;4979194;28;20491;-67
2023/09/05 09:19:01;;;;;;;3.20;1.60;;;;;;;;;;4978110;28;20441;-65
2023/09/05 09:21:29;;;;;;;2.50;1.40;;;;;;;;;;4967204;28;20419;-64
2023/09/05 09:23:59;;;;;;;4.70;1.45;;;;;;;;;;4961537;28;20528;-66
2023/09/05 09:26:27;;;;;;;1.83;1.40;;;;;;;;;;4967072;28;20420;-66
2023/09/05 09:28:54;;;;;;;2.65;1.80;;;;;;;;;;4966569;28;20445;-65
2023/09/05 09:31:26;;;;;;;1.52;1.23;;;;;;;;;;4970157;28;20478;-66
2023/09/05 09:33:57;;;;;;;3.17;1.45;;;;;;;;;;4962162;28;20440;-65
2023/09/05 09:36:24;;;;;;;2.60;1.40;;;;;;;;;;4960482;28;20536;-64
2023/09/05 09:38:51;;;;;;;2.60;1.50;;;;;;;;;;4965236;28;20494;-65
2023/09/05 09:41:22;;;;;;;1.85;1.30;;;;;;;;;;4970215;28;20503;-65
2023/09/05 09:43:55;;;;;;;2.15;1.35;;;;;;;;;;4964641;28;20420;-65
2023/09/05 09:46:24;;;;;;;1.70;1.25;;;;;;;;;;4966853;28;20427;-66
2023/09/05 09:48:51;;;;;;;3.47;1.40;;;;;;;;;;4966065;28;20434;-66
2023/09/05 09:51:20;;;;;;;3.70;1.88;;;;;;;;;;4965463;28;20416;-65
2023/09/05 09:53:49;;;;;;;3.42;1.60;;;;;;;;;;4969879;28;20502;-65
2023/09/05 09:56:18;;;;;;;3.03;1.38;;;;;;;;;;4961187;28;20815;-66
2023/09/05 09:58:46;;;;;;;2.03;1.50;;;;;;;;;;4971392;28;20467;-64
2023/09/05 10:01:14;;;;;;;1.83;1.20;;;;;;;;;;4965197;28;20420;-64
2023/09/05 10:03:44;;;;;;;2.60;1.40;;;;;;;;;;4966176;28;20416;-64
2023/09/05 10:06:11;;;;;;;2.47;1.40;;;;;;;;;;4965219;28;20949;-65
2023/09/05 10:08:39;;;;;;;2.53;1.50;;;;;;;;;;4965443;28;20538;-66
2023/09/05 10:11:05;;;;;;;3.35;1.20;;;;;;;;;;4964542;28;20479;-65
2023/09/05 10:13:35;;;;;;;3.45;1.20;;;;;;;;;;4964629;28;20436;-67
2023/09/05 10:16:02;;;;;;;2.85;1.20;;;;;;;;;;4966214;28;20422;-67
2023/09/05 10:18:31;;;;;;;2.42;1.10;;;;;;;;;;4968343;28;20423;-68
2023/09/05 10:21:01;;;;;;;2.15;1.20;;;;;;;;;;4963601;28;20991;-66
2023/09/05 10:23:30;;;;;;;2.40;1.13;;;;;;;;;;4966877;28;20503;-66
2023/09/05 10:25:57;;;;;;;2.45;1.15;;;;;;;;;;4958883;28;20908;-66
2023/09/05 10:28:27;;;;;;;3.00;1.17;;;;;;;;;;4969069;28;20415;-65
2023/09/05 10:30:55;;;;;;;2.10;1.10;;;;;;;;;;4961540;28;20433;-66
2023/09/05 10:33:32;;;;;;;2.22;1.30;;;;;;;;;;4960376;28;20432;-65
2023/09/05 10:36:02;;;;;;;1.90;1.25;;;;;;;;;;4961696;28;20490;-65
2023/09/05 10:38:30;;;;;;;2.53;1.35;;;;;;;;;;4967455;28;20767;-65
2023/09/05 10:40:59;;;;;;;1.30;1.00;;;;;;;;;;4965530;28;20503;-65
2023/09/05 10:43:27;;;;;;;1.73;1.27;;;;;;;;;;4968696;28;20513;-65
2023/09/05 10:45:57;;;;;;;1.80;1.20;;;;;;;;;;4961529;28;21083;-68
2023/09/05 10:48:40;;;;;;;2.75;1.40;;;;;;;;;;4959906;28;20467;-68
2023/09/05 10:51:10;;;;;;;2.70;1.10;;;;;;;;;;4961601;28;20412;-65
2023/09/05 10:53:38;;;;;;;1.70;1.17;;;;;;;;;;4963408;28;20534;-67
2023/09/05 10:56:06;;;;;;;4.43;1.27;;;;;;;;;;4962839;28;20417;-66
2023/09/05 10:58:39;;;;;;;3.15;1.10;;;;;;;;;;4964470;28;20479;-67
2023/09/05 11:01:22;;;;;;;1.92;1.08;;;;;;;;;;4960026;28;20433;-66
2023/09/05 11:03:49;;;;;;;2.00;1.20;;;;;;;;;;4959463;28;20432;-64
2023/09/05 11:06:19;;;;;;;3.05;1.17;;;;;;;;;;4960886;28;20435;-65
2023/09/05 11:08:57;;;;;;;1.98;1.20;;;;;;;;;;4962506;28;20435;-64
2023/09/05 11:11:24;;;;;;;1.92;1.27;;;;;;;;;;4963674;28;20410;-65
2023/09/05 11:13:51;;;;;;;3.42;1.35;;;;;;;;;;4960144;28;20445;-64
2023/09/05 11:16:18;;;;;;;1.70;1.20;;;;;;;;;;4963038;28;20424;-65
2023/09/05 11:18:46;;;;;;;4.13;1.30;;;;;;;;;;4962423;28;20834;-66
2023/09/05 11:21:22;;;;;;;1.90;1.20;;;;;;;;;;4963647;28;20420;-65
2023/09/05 11:23:52;;;;;;;2.70;1.00;;;;;;;;;;4959782;28;20432;-65
2023/09/05 11:26:19;;;;;;;3.50;1.40;;;;;;;;;;4963383;28;20416;-66
2023/09/05 11:28:48;;;;;;;1.73;1.20;;;;;;;;;;4964498;28;20418;-66
2023/09/05 11:31:15;;;;;;;2.97;1.20;;;;;;;;;;4964778;28;20416;-66
2023/09/05 11:33:42;;;;;;;1.77;1.13;;;;;;;;;;4961365;28;20945;-66
2023/09/05 11:36:10;;;;;;;2.58;1.20;;;;;;;;;;4961916;28;20784;-66
2023/09/05 11:38:47;;;;;;;1.67;1.10;;;;;;;;;;4962974;28;20841;-65
2023/09/05 11:41:14;;;;;;;2.15;1.27;;;;;;;;;;4970141;28;20503;-64
2023/09/05 11:43:46;;;;;;;2.05;1.20;;;;;;;;;;4968375;28;20834;-67
2023/09/05 11:46:13;;;;;;;2.10;1.20;;;;;;;;;;4962625;28;20405;-66
2023/09/05 11:48:42;;;;;;;3.70;1.40;;;;;;;;;;4965430;28;20428;-67
2023/09/05 11:51:10;;;;;;;3.90;1.17;;;;;;;;;;4963383;28;20451;-65
2023/09/05 11:53:37;;;;;;;5.03;1.38;;;;;;;;;;4965428;28;20428;-67
2023/09/05 11:56:06;;;;;;;2.70;1.30;;;;;;;;;;4964235;28;20503;-68
2023/09/05 11:58:34;;;;;;;1.35;1.02;;;;;;;;;;4969786;28;20830;-67
2023/09/05 12:01:01;;;;;;;2.72;1.15;;;;;;;;;;4964473;28;20459;-67
2023/09/05 12:03:30;;;;;;;3.58;1.40;;;;;;;;;;4965881;28;20531;-65
2023/09/05 12:05:57;;;;;;;3.78;1.20;;;;;;;;;;4967414;28;20526;-66
2023/09/05 12:08:24;;;;;;;2.00;0.90;;;;;;;;;;4964611;28;20523;-64
2023/09/05 12:10:52;;;;;;;3.35;0.90;;;;;;;;;;4968536;28;20486;-66
2023/09/05 12:13:20;;;;;;;1.48;1.10;;;;;;;;;;4967296;28;20428;-66
2023/09/05 12:15:48;;;;;;;1.80;1.30;;;;;;;;;;4964581;28;20427;-66
2023/09/05 12:18:19;;;;;;;1.58;1.00;;;;;;;;;;4967434;28;20927;-65
2023/09/05 12:20:55;;;;;;;1.43;0.80;;;;;;;;;;4966871;28;20510;-66
2023/09/05 12:23:24;;;;;;;1.88;1.00;;;;;;;;;;4971992;28;20413;-67
2023/09/05 12:25:52;;;;;;;2.20;1.20;;;;;;;;;;4966630;28;20464;-65
2023/09/05 12:28:21;;;;;;;2.22;0.90;;;;;;;;;;4970557;28;21200;-55
2023/09/05 12:30:48;;;;;;;2.00;0.93;;;;;;;;;;4952614;28;20430;-59
2023/09/05 12:33:15;;;;;;;2.35;1.10;;;;;;;;;;4950716;28;20530;-62
2023/09/05 12:35:44;;;;;;;3.10;1.10;;;;;;;;;;4961637;28;20424;-62
2023/09/05 12:38:11;;;;;;;4.43;1.20;;;;;;;;;;4969943;28;20449;-61
2023/09/05 12:40:38;;;;;;;1.90;1.00;;;;;;;;;;4962903;28;20866;-62
2023/09/05 12:43:06;;;;;;;1.73;1.10;;;;;;;;;;4971348;28;20510;-62
2023/09/05 12:45:34;;;;;;;3.55;1.10;;;;;;;;;;4968705;28;20461;-63
2023/09/05 12:48:01;;;;;;;2.67;0.98;;;;;;;;;;4975217;28;20478;-64
2023/09/05 12:50:32;;;;;;;2.00;0.90;;;;;;;;;;4963596;28;20420;-64
2023/09/05 12:53:00;;;;;;;2.10;0.80;;;;;;;;;;4968020;28;20420;-64
2023/09/05 12:55:28;;;;;;;3.65;1.10;;;;;;;;;;4962632;28;20432;-63
2023/09/05 12:57:55;;;;;;;1.45;0.80;;;;;;;;;;4966796;28;20492;-64
2023/09/05 13:00:22;;;;;;;1.75;1.08;;;;;;;;;;4967035;28;20927;-61
2023/09/05 13:02:50;;;;;;;1.83;1.00;;;;;;;;;;4970928;28;20440;-63
2023/09/05 13:05:17;;;;;;;1.58;0.90;;;;;;;;;;4963819;28;20424;-64
2023/09/05 13:07:45;;;;;;;1.80;0.90;;;;;;;;;;4967313;28;20424;-64
2023/09/05 13:10:12;;;;;;;2.15;1.10;;;;;;;;;;4964951;28;20435;-64
2023/09/05 13:12:39;;;;;;;1.30;0.80;;;;;;;;;;4969293;28;20478;-63
2023/09/05 13:15:07;;;;;;;2.20;0.88;;;;;;;;;;4962759;28;20437;-63
2023/09/05 13:17:34;;;;;;;2.90;1.20;;;;;;;;;;4978325;28;20420;-64
2023/09/05 13:20:03;;;;;;;1.25;0.90;;;;;;;;;;4963894;28;20438;-61
2023/09/05 13:22:30;;;;;;;2.88;1.02;;;;;;;;;;4965841;28;20420;-62
2023/09/05 13:24:57;;;;;;;3.10;1.10;;;;;;;;;;4967290;28;21053;-64
2023/09/05 13:27:24;;;;;;;2.40;0.98;;;;;;;;;;4968450;28;20475;-63
2023/09/05 13:29:51;;;;;;;2.03;0.80;;;;;;;;;;4961908;28;20426;-65
2023/09/05 13:32:18;;;;;;;1.83;0.82;;;;;;;;;;4970222;28;20416;-65
2023/09/05 13:34:46;;;;;;;1.90;0.85;;;;;;;;;;4966775;28;20437;-66
2023/09/05 13:37:14;;;;;;;1.90;0.87;;;;;;;;;;4966802;28;20421;-67
2023/09/05 13:39:41;;;;;;;1.33;0.93;;;;;;;;;;4963203;28;20431;-66
2023/09/05 13:42:08;;;;;;;1.42;0.90;;;;;;;;;;4965877;28;20925;-66
2023/09/05 13:44:36;;;;;;;2.35;0.90;;;;;;;;;;4966479;28;20427;-64
2023/09/05 13:47:03;;;;;;;3.17;0.90;;;;;;;;;;4967229;28;20442;-66
2023/09/05 13:49:30;;;;;;;1.67;0.90;;;;;;;;;;4967155;28;20419;-65
2023/09/05 13:51:58;;;;;;;4.35;1.00;;;;;;;;;;4964113;28;20425;-65
2023/09/05 13:54:26;;;;;;;2.50;0.80;;;;;;;;;;4965358;28;20454;-65
2023/09/05 13:56:53;;;;;;;2.92;1.10;;;;;;;;;;4968334;28;20424;-64
2023/09/05 13:59:20;;;;;;;2.55;1.00;;;;;;;;;;4968003;28;20914;-64
2023/09/05 14:01:47;;;;;;;1.60;1.00;;;;;;;;;;4967464;28;20424;-64
2023/09/05 14:04:15;;;;;;;2.33;0.90;;;;;;;;;;4967313;28;20825;-64
2023/09/05 14:06:46;;;;;;;2.13;0.90;;;;;;;;;;4966501;28;20424;-64
2023/09/05 14:09:13;;;;;;;3.17;1.02;;;;;;;;;;4965067;28;20437;-64
2023/09/05 14:11:41;;;;;;;1.30;0.90;;;;;;;;;;4964251;28;20411;-65
2023/09/05 14:14:08;;;;;;;2.53;1.00;;;;;;;;;;4966687;28;20992;-63
2023/09/05 14:16:35;;;;;;;1.70;1.17;;;;;;;;;;4966742;28;20424;-63
2023/09/05 14:19:02;;;;;;;2.20;1.00;;;;;;;;;;4968428;28;20434;-63
2023/09/05 14:21:29;;;;;;;2.23;1.00;;;;;;;;;;4968238;28;20418;-63
2023/09/05 14:23:56;;;;;;;1.50;1.00;;;;;;;;;;4965978;28;20440;-63
2023/09/05 14:26:25;;;;;;;3.90;1.17;;;;;;;;;;4966720;28;21040;-63
2023/09/05 14:28:53;;;;;;;1.20;0.93;;;;;;;;;;4972321;28;20444;-63
2023/09/05 14:31:20;;;;;;;2.00;0.95;;;;;;;;;;4966098;28;21041;-64
2023/09/05 14:33:47;;;;;;;3.10;1.23;;;;;;;;;;4981216;28;20434;-65
2023/09/05 14:36:14;;;;;;;1.17;0.80;;;;;;;;;;4966656;28;20447;-63
2023/09/05 14:38:41;;;;;;;1.88;1.00;;;;;;;;;;4969575;28;20433;-64
2023/09/05 14:41:09;;;;;;;2.30;1.02;;;;;;;;;;4969924;28;20412;-65
2023/09/05 14:43:36;;;;;;;1.90;1.30;;;;;;;;;;4969206;28;20514;-65
2023/09/05 14:46:04;;;;;;;2.55;0.98;;;;;;;;;;4964449;28;20447;-64
2023/09/05 14:48:31;;;;;;;3.45;1.38;;;;;;;;;;4972285;28;20416;-64
2023/09/05 14:50:58;;;;;;;3.03;0.95;;;;;;;;;;4969822;28;20421;-63